AirNav   Everest Fuels
 
 737 users online  

0GE3 Lookout Mountain Airport
Trenton, Georgia, USA

GOING TO TRENTON?


FAA INFORMATION EFFECTIVE 21 MAY 2020

Location

FAA Identifier: 0GE3
Lat/Long: 34-54-10.0900N 085-27-37.4600W
34-54.168167N 085-27.624333W
34.9028028,-85.4604056
(estimated)
Elevation: 646 ft. / 197 m (estimated)
Variation: 03W (2000)
From city: 5 miles NE of TRENTON, GA
Time zone: UTC -4 (UTC -5 during Standard Time)
Zip code: 30757

Airport Operations

Airport use: Private use. Permission required prior to landing
Activation date: 03/2001
Control tower: no
ARTCC: ATLANTA CENTER
FSS: MACON FLIGHT SERVICE STATION
Attendance: THU-MON 0900-1800
Wind indicator: yes
Segmented circle: no

Airport Communications

WX ASOS at CHA (15 nm NE): 119.85 (423-499-5973)
WX AWOS-3 at 9A5 (15 nm SE): 119.775 (706-639-1976)

Nearby radio navigation aids

VOR radial/distance  VOR name  Freq  Var
GQOr256/15.5CHOO CHOO VORTAC115.8001E

 
NDB name  Hdg/Dist  Freq  Var  ID
DAISY225/21.734102WCQN -.-. --.- -.
FORT PAYNE029/25.242604WFTP ..-. - .--.

Airport Services

Runway Information

Runway 2/20

Dimensions: 2000 x 50 ft. / 610 x 15 m
Surface: turf
RUNWAY 2  RUNWAY 20
Latitude: 34-54.005500N34-54.330833N
Longitude: 085-27.656667W085-27.592000W
Elevation: 646.0 ft.646.0 ft.
Traffic pattern: leftleft
Obstructions: 50 ft. trees, 300 ft. from runway150 ft. gnd, 100 ft. from runway

Airport Ownership and Management from official FAA records

Ownership: Privately-owned
Owner: MATT TABER
7201 SCENIC HWY 189
RISING FAWN, GA 30738
Phone 706-398-3541
Manager: MATT TABER
7201 SCENIC HWY 189
RISING FAWN, GA 30738
Phone 706-398-3541

Airport Operational Statistics

Aircraft based on the field: 7
Single engine airplanes: 1
Gliders airplanes: 1
Ultralights: 5
    

Additional Remarks

1300 FT MOUNTAIN 1 NM SOUTHEAST OF RY.
FOR CD CTC CHATTANOOGA APCH AT 423-855-6478, WHEN APCH CLSD CTC ATLANTA ARTCC AT 770-210-7692.

Instrument Procedures

There are no published instrument procedures at 0GE3.

Some nearby airports with instrument procedures:

KAPT - Marion County Airport-Brown Field (11 nm NW)
KCHA - Lovell Field Airport (15 nm NE)
9A5 - Barwick Lafayette Airport (15 nm SE)
4A9 - Isbell Field Airport (29 nm SW)
4A6 - Scottsboro Municipal Airport-Word Field (30 nm SW)
 
Loc | Ops | Rwys | IFR | FBO | Links
Com | Nav | Svcs | Stats | Notes
Area around 0GE3 (Lookout Mountain Airport)
 
Road maps at: MapQuest Bing Google
 
Aerial photo
WARNING: Photo may not be current or correct
Aerial photo of 0GE3 (Lookout Mountain Airport)
Do you have a better or more recent aerial photo of Lookout Mountain Airport that you would like to share? If so, please send us your photo.

 
Sectional chart

 
Airport distance calculator
Flying to Lookout Mountain Airport? Find the distance to fly.

From to 0GE3

Sunrise and sunset
Times for 02-Jun-2020
 Local
(UTC-4)
 Zulu
(UTC)
Morning civil twilight06:0010:00
Sunrise06:3010:30
Sunset20:5000:50
Evening civil twilight21:1901:19

Current date and time
Zulu (UTC)  03-Jun-2020 03:58:20
Local (UTC-4)  02-Jun-2020 23:58:20
 
METAR
KCHA 
15nm NE 
030353Z 17004KT 10SM FEW250 24/18 A3010 RMK AO2 SLP183 LAST T02440183
K9A5 
15nm SE 
030335Z AUTO 00000KT 10SM CLR 20/19 A3012 RMK AO2 T02000192
KDNN 
20nm SE 
030335Z AUTO 00000KT 10SM CLR 22/19 A3012 RMK AO2
K4A9 
29nm SW 
030335Z AUTO 00000KT 10SM CLR 20/19 A3011 RMK AO2 T02010193
K4A6 
30nm SW 
030355Z AUTO 00000KT 10SM FEW026 FEW036 OVC046 22/22 A3010 RMK AO2
TAF
KCHA 
15nm NE 
021730Z 0218/0318 21006KT P6SM FEW045 FM030300 VRB03KT P6SM FEW110
NOTAMs
Click for the latest NOTAMs
NOTAMs are issued by the DoD/FAA and will open in a separate window not controlled by AirNav.

 

 
 

Would you like to see your business listed on this page?

 If your business provides an interesting product or service to pilots, flight crews, aircraft, or users of the Lookout Mountain Airport, you should consider listing it here.  To start the listing process, click on the button below
 
Add a business
 

Other Pages about Lookout Mountain Airport

www.hangglide.com
 
Update a link
 
Copyright © AirNav, LLC. All rights reserved. Privacy Policy  Contact